Irvine, United Kingdom

2:38 AM GMT on March 07, 2015 (GMT +0000)
Three Towns | Change Station
CLOSE
Current Station
Personal Weather Station
Location: Saltcoats,
Elevation: 121 ft
Nearby Weather Stations

Elev 121 ft 55.65 °N, 4.78 °W | Updated 3 seconds ago

Overcast
Overcast
46.6 °F
Feels Like 39 °F
N
19.6
Wind Variable Wind from SE
Gusts 19.6 mph

Today
High -- | Low -- °F
--% Chance of Precip.
Yesterday
High -- | Low -- °F
Precip. -- in
6:55 AM 6:05 PM
Full, 98% visible
Pressure 29.77 in
Visibility 3.1 miles
Clouds Few 1400 ft
Overcast 2000 ft
Windchill 39 °F
Dew Point 42 °F
Humidity 83%
Rainfall in
Snow Depth Not available.
UV 0 out of 12
Pollen Not available.
Air Quality Not available.
Flu Activity Not available.
METAR EGPF 070220Z AUTO 21027G38KT 5000 -RADZ FEW014/// OVC020/// //////TCU 09/07 Q1008 RERA REDZ

More Conditions Fewer Conditions

Pressure 29.77 in
Visibility 3.1 miles
Clouds Few 1400 ft
Overcast 2000 ft
Windchill 39 °F
Dew Point 42 °F
Humidity 83%
Rainfall in
Snow Depth Not available.
UV 0 out of 12
Pollen Not available.
Air Quality Not available.
Flu Activity Not available.
METAR EGPF 070220Z AUTO 21027G38KT 5000 -RADZ FEW014/// OVC020/// //////TCU 09/07 Q1008 RERA REDZ

More Conditions Fewer Conditions

10-Day Weather Forecast

Almanac

Astronomy

Mar. 07, 2015 Rise Set
Actual Time
Civil Twilight
Nautical Twilight
Astronomical Twilight
Moon
Length of Visible Light
Length of Day
Tomorrow will be .
, % of the Moon is Illuminated

Today's Extremes

Country Highs Country Lows

Community

WunderPhotos

Upload Photos

1,803,500 photos uploaded!

WunderBlogs® & News

Nearby

Air Quality

  Air Quality AQ Index Pollutant
Not available.

Snow Depth

Station Depth Elevation

Earthquake Activity

City Distance Mag. Time & Date
Minimum magnitude displayed is 2.5.

Coastal Water Temperatures

Place Temperature

Nearby Weather Stations